Time;durP1;ratioP1;P1;durP2;ratioP2;P2;SDS_P1;SDS_P2;PMS_P1;PMS_P2;Temp;Humidity;BMP_temperature;BMP_pressure;BME280_temperature;BME280_humidity;BME280_pressure;Samples;Min_cycle;Max_cycle;Signal;HPM_P1;HPM_P2
2023/01/11 00:00:07;;;;;;;1.40;1.30;;;;;;;;;;5074423;28;20176;-55
2023/01/11 00:02:33;;;;;;;1.33;1.27;;;;;;;;;;5057989;28;20182;-55
2023/01/11 00:05:00;;;;;;;2.20;1.07;;;;;;;;;;5073764;28;20195;-55
2023/01/11 00:07:26;;;;;;;0.93;0.93;;;;;;;;;;5077703;28;20179;-55
2023/01/11 00:09:52;;;;;;;1.20;1.10;;;;;;;;;;5079886;28;20199;-55
2023/01/11 00:12:18;;;;;;;1.10;1.00;;;;;;;;;;5080789;28;20175;-55
2023/01/11 00:14:44;;;;;;;2.73;1.10;;;;;;;;;;5081331;28;20581;-54
2023/01/11 00:17:10;;;;;;;1.23;1.10;;;;;;;;;;5082019;28;20291;-55
2023/01/11 00:19:36;;;;;;;1.00;1.00;;;;;;;;;;5077149;28;20669;-55
2023/01/11 00:22:02;;;;;;;1.00;1.00;;;;;;;;;;5082970;28;20192;-55
2023/01/11 00:24:28;;;;;;;0.87;0.87;;;;;;;;;;5078692;28;20619;-54
2023/01/11 00:26:54;;;;;;;2.20;1.00;;;;;;;;;;5080366;28;20188;-55
2023/01/11 00:29:20;;;;;;;0.90;0.90;;;;;;;;;;5080968;28;20266;-55
2023/01/11 00:31:46;;;;;;;0.97;0.97;;;;;;;;;;5049462;28;20230;-55
2023/01/11 00:34:12;;;;;;;0.90;0.90;;;;;;;;;;5057733;28;20848;-55
2023/01/11 00:36:38;;;;;;;0.97;0.97;;;;;;;;;;5080392;28;20569;-55
2023/01/11 00:39:04;;;;;;;0.90;0.90;;;;;;;;;;5079770;28;20669;-55
2023/01/11 00:50:01;;;;;;;1.10;1.07;;;;;;;;;;5078901;28;20202;-55
2023/01/11 00:52:28;;;;;;;1.20;1.10;;;;;;;;;;5078389;28;20642;-55
2023/01/11 00:54:56;;;;;;;0.83;0.83;;;;;;;;;;5086425;28;20176;-55
2023/01/11 00:57:22;;;;;;;1.03;1.03;;;;;;;;;;5076775;28;20183;-56
2023/01/11 00:59:48;;;;;;;1.27;1.17;;;;;;;;;;5071763;28;20180;-55
2023/01/11 01:02:14;;;;;;;1.27;1.10;;;;;;;;;;5082888;28;20609;-55
2023/01/11 01:04:40;;;;;;;1.70;1.07;;;;;;;;;;5082038;28;20221;-55
2023/01/11 01:07:06;;;;;;;1.60;1.10;;;;;;;;;;5074123;28;20265;-54
2023/01/11 01:09:32;;;;;;;1.30;1.20;;;;;;;;;;5082419;28;20172;-54
2023/01/11 01:12:01;;;;;;;1.23;0.97;;;;;;;;;;5084210;28;20724;-55
2023/01/11 01:14:31;;;;;;;1.03;1.03;;;;;;;;;;5080624;28;20167;-55
2023/01/11 01:17:02;;;;;;;1.00;1.00;;;;;;;;;;5078853;28;20211;-55
2023/01/11 01:19:29;;;;;;;1.10;1.00;;;;;;;;;;5082329;28;20176;-55
2023/01/11 01:21:57;;;;;;;1.40;1.30;;;;;;;;;;5067640;28;20578;-55
2023/01/11 01:24:24;;;;;;;1.30;1.20;;;;;;;;;;5080259;28;20194;-55
2023/01/11 01:26:50;;;;;;;1.40;1.30;;;;;;;;;;5083121;28;20736;-55
2023/01/11 01:29:17;;;;;;;1.20;1.10;;;;;;;;;;5059049;28;20548;-55
2023/01/11 01:31:43;;;;;;;0.97;0.97;;;;;;;;;;5080108;28;20673;-55
2023/01/11 01:34:10;;;;;;;2.53;1.20;;;;;;;;;;5063469;28;20216;-55
2023/01/11 01:36:36;;;;;;;1.10;1.10;;;;;;;;;;5071314;28;20216;-55
2023/01/11 01:39:03;;;;;;;1.47;1.20;;;;;;;;;;5065973;28;20181;-54
2023/01/11 01:41:29;;;;;;;1.30;1.20;;;;;;;;;;5073780;28;20521;-55
2023/01/11 01:43:57;;;;;;;0.90;0.90;;;;;;;;;;5076039;28;20184;-55
2023/01/11 01:46:26;;;;;;;1.10;1.10;;;;;;;;;;5079911;28;20195;-55
2023/01/11 01:49:13;;;;;;;0.90;0.90;;;;;;;;;;5077595;28;20188;-55
2023/01/11 01:52:08;;;;;;;1.10;1.10;;;;;;;;;;5069584;28;20191;-54
2023/01/11 01:54:36;;;;;;;1.13;1.13;;;;;;;;;;5051794;28;20540;-55
2023/01/11 01:57:05;;;;;;;1.00;1.00;;;;;;;;;;5081080;28;20266;-55
2023/01/11 01:59:32;;;;;;;0.83;0.83;;;;;;;;;;5078071;28;20237;-54
2023/01/11 02:01:58;;;;;;;1.40;1.30;;;;;;;;;;5077516;28;20574;-54
2023/01/11 02:04:45;;;;;;;0.90;0.90;;;;;;;;;;5069001;28;20169;-56
2023/01/11 02:07:11;;;;;;;1.00;1.00;;;;;;;;;;5077354;28;20200;-55
2023/01/11 02:09:40;;;;;;;1.00;1.00;;;;;;;;;;5074656;28;20845;-55
2023/01/11 02:12:07;;;;;;;1.23;1.00;;;;;;;;;;5069766;28;20176;-55
2023/01/11 02:14:35;;;;;;;2.20;1.10;;;;;;;;;;5058220;28;20196;-55
2023/01/11 02:17:01;;;;;;;1.00;1.00;;;;;;;;;;5077266;28;20202;-56
2023/01/11 02:19:31;;;;;;;0.87;0.87;;;;;;;;;;5076782;28;20181;-55
2023/01/11 02:22:16;;;;;;;1.20;1.10;;;;;;;;;;5072720;28;20263;-55
2023/01/11 02:25:00;;;;;;;1.20;0.97;;;;;;;;;;5069523;28;20298;-56
2023/01/11 02:27:45;;;;;;;1.87;1.27;;;;;;;;;;5074977;28;21078;-56
2023/01/11 02:30:24;;;;;;;1.93;1.83;;;;;;;;;;5072840;28;20988;-56
2023/01/11 02:32:50;;;;;;;1.73;1.07;;;;;;;;;;5083812;28;20175;-56
2023/01/11 02:35:23;;;;;;;0.80;0.80;;;;;;;;;;5077070;28;20175;-55
2023/01/11 02:38:03;;;;;;;1.00;1.00;;;;;;;;;;5080423;28;20176;-56
2023/01/11 02:40:34;;;;;;;1.20;1.20;;;;;;;;;;5077664;28;20174;-57
2023/01/11 02:46:08;;;;;;;1.00;1.00;;;;;;;;;;5076826;28;20257;-56
2023/01/11 02:48:40;;;;;;;1.30;1.20;;;;;;;;;;5075077;28;20255;-56
2023/01/11 02:51:07;;;;;;;1.03;1.00;;;;;;;;;;5073808;28;20240;-56
2023/01/11 02:53:51;;;;;;;1.10;1.10;;;;;;;;;;5072116;28;20172;-55
2023/01/11 02:56:26;;;;;;;0.90;0.90;;;;;;;;;;5082746;28;20650;-55
2023/01/11 02:58:54;;;;;;;0.90;0.90;;;;;;;;;;5081231;28;20187;-55
2023/01/11 03:01:21;;;;;;;2.30;1.10;;;;;;;;;;5077251;28;20272;-56
2023/01/11 03:03:47;;;;;;;1.00;1.00;;;;;;;;;;5076220;28;20199;-56
2023/01/11 03:06:16;;;;;;;1.40;1.30;;;;;;;;;;5058956;28;20208;-56
2023/01/11 03:08:43;;;;;;;0.90;0.90;;;;;;;;;;5075700;28;20180;-56
2023/01/11 03:11:13;;;;;;;1.17;1.17;;;;;;;;;;5064054;28;20175;-56
2023/01/11 03:14:07;;;;;;;1.00;1.00;;;;;;;;;;5082186;28;20207;-55
2023/01/11 03:16:46;;;;;;;1.50;1.00;;;;;;;;;;5079625;28;20195;-56
2023/01/11 03:19:15;;;;;;;1.00;0.90;;;;;;;;;;5079281;28;20194;-55
2023/01/11 03:21:47;;;;;;;1.00;1.00;;;;;;;;;;5078631;28;20187;-56
2023/01/11 03:24:17;;;;;;;0.90;0.90;;;;;;;;;;5079313;28;20182;-56
2023/01/11 03:26:51;;;;;;;1.77;1.23;;;;;;;;;;5083225;28;20696;-56
2023/01/11 03:29:32;;;;;;;1.27;1.10;;;;;;;;;;5071847;28;20836;-55
2023/01/11 03:32:07;;;;;;;1.23;1.20;;;;;;;;;;5063807;28;20658;-55
2023/01/11 03:34:33;;;;;;;1.10;1.10;;;;;;;;;;5062937;28;20186;-56
2023/01/11 03:37:22;;;;;;;1.07;1.07;;;;;;;;;;5060325;28;20180;-57
2023/01/11 03:40:02;;;;;;;1.40;1.30;;;;;;;;;;5062577;28;20180;-56
2023/01/11 03:42:30;;;;;;;1.00;1.00;;;;;;;;;;5062543;28;20168;-56
2023/01/11 03:44:57;;;;;;;1.30;1.20;;;;;;;;;;5061263;28;20267;-56
2023/01/11 03:47:25;;;;;;;1.60;1.23;;;;;;;;;;5063070;28;20283;-56
2023/01/11 03:49:57;;;;;;;2.37;1.33;;;;;;;;;;5041736;28;20177;-57
2023/01/11 03:52:26;;;;;;;1.43;1.33;;;;;;;;;;5054237;28;20211;-56
2023/01/11 03:54:54;;;;;;;1.00;1.00;;;;;;;;;;5061641;28;20732;-57
2023/01/11 03:57:32;;;;;;;1.50;1.40;;;;;;;;;;5058452;28;20649;-56
2023/01/11 03:59:58;;;;;;;1.37;1.27;;;;;;;;;;5052831;28;20184;-55
2023/01/11 04:02:25;;;;;;;1.60;1.43;;;;;;;;;;5060248;28;20172;-56
2023/01/11 04:04:51;;;;;;;2.47;1.43;;;;;;;;;;5060350;28;20184;-56
2023/01/11 04:07:18;;;;;;;1.60;1.50;;;;;;;;;;5056693;28;20614;-57
2023/01/11 04:09:44;;;;;;;1.40;1.30;;;;;;;;;;5063844;28;20734;-56
2023/01/11 04:12:10;;;;;;;1.40;1.30;;;;;;;;;;5062756;28;20173;-57
2023/01/11 04:14:36;;;;;;;1.60;1.50;;;;;;;;;;5065692;28;20180;-56
2023/01/11 04:17:02;;;;;;;3.57;3.47;;;;;;;;;;5066097;28;20755;-56
2023/01/11 04:19:29;;;;;;;2.30;1.47;;;;;;;;;;5068269;28;20654;-56
2023/01/11 04:21:55;;;;;;;1.40;1.30;;;;;;;;;;5068470;28;20227;-57
2023/01/11 04:24:21;;;;;;;2.43;1.40;;;;;;;;;;5066892;28;20177;-56
2023/01/11 04:26:47;;;;;;;1.57;1.47;;;;;;;;;;5067467;28;20211;-56
2023/01/11 04:29:13;;;;;;;2.43;1.30;;;;;;;;;;5066404;28;20169;-56
2023/01/11 04:31:39;;;;;;;4.70;4.40;;;;;;;;;;5081934;28;20215;-56
2023/01/11 04:34:05;;;;;;;3.40;1.30;;;;;;;;;;5085953;28;20229;-55
2023/01/11 04:36:32;;;;;;;1.33;1.20;;;;;;;;;;5080297;28;20176;-57
2023/01/11 04:38:58;;;;;;;1.40;1.30;;;;;;;;;;5057201;28;20267;-56
2023/01/11 04:44:09;;;;;;;2.00;1.40;;;;;;;;;;5088953;28;20259;-56
2023/01/11 04:46:35;;;;;;;1.50;1.40;;;;;;;;;;5082080;28;20732;-56
2023/01/11 04:49:01;;;;;;;1.83;1.70;;;;;;;;;;5084344;28;20195;-55
2023/01/11 04:51:27;;;;;;;3.07;1.30;;;;;;;;;;5076453;28;20187;-56
2023/01/11 04:53:54;;;;;;;1.50;1.10;;;;;;;;;;5054235;28;20241;-55
2023/01/11 04:56:20;;;;;;;1.57;1.33;;;;;;;;;;5082475;28;20209;-55
2023/01/11 04:58:46;;;;;;;2.50;1.30;;;;;;;;;;5083710;28;20205;-55
2023/01/11 05:01:16;;;;;;;1.40;1.30;;;;;;;;;;5083115;28;20180;-55
2023/01/11 05:03:43;;;;;;;2.23;1.47;;;;;;;;;;5086889;28;20192;-55
2023/01/11 05:06:09;;;;;;;1.67;1.57;;;;;;;;;;5084488;28;20290;-56
2023/01/11 05:08:35;;;;;;;1.20;1.10;;;;;;;;;;5057544;28;20249;-56
2023/01/11 05:11:05;;;;;;;1.40;1.30;;;;;;;;;;5081867;28;20525;-55
2023/01/11 05:13:41;;;;;;;1.40;1.30;;;;;;;;;;5083406;28;20241;-57
2023/01/11 05:16:08;;;;;;;1.53;1.30;;;;;;;;;;5081904;28;20211;-57
2023/01/11 05:18:35;;;;;;;1.60;1.50;;;;;;;;;;5087774;28;20175;-57
2023/01/11 05:21:01;;;;;;;2.70;2.07;;;;;;;;;;5054165;28;20560;-56
2023/01/11 05:23:27;;;;;;;1.67;1.57;;;;;;;;;;5078821;28;20176;-56
2023/01/11 05:25:53;;;;;;;1.40;1.30;;;;;;;;;;5064364;28;20533;-56
2023/01/11 05:28:19;;;;;;;2.10;1.60;;;;;;;;;;5063029;28;20179;-57
2023/01/11 05:30:50;;;;;;;1.53;1.40;;;;;;;;;;5083525;28;20231;-57
2023/01/11 05:33:16;;;;;;;2.20;2.10;;;;;;;;;;5082654;28;20184;-57
2023/01/11 05:35:42;;;;;;;1.73;1.57;;;;;;;;;;5085759;28;20190;-56
2023/01/11 05:38:08;;;;;;;1.97;1.47;;;;;;;;;;5085725;28;20187;-56
2023/01/11 05:40:34;;;;;;;2.27;1.70;;;;;;;;;;5082166;28;20746;-56
2023/01/11 05:43:00;;;;;;;2.07;1.87;;;;;;;;;;5081532;28;20190;-57
2023/01/11 05:45:30;;;;;;;2.90;1.90;;;;;;;;;;5084817;28;20172;-56
2023/01/11 05:47:57;;;;;;;2.30;1.93;;;;;;;;;;5081183;28;20180;-56
2023/01/11 05:50:23;;;;;;;2.07;1.90;;;;;;;;;;5058514;28;20263;-56
2023/01/11 05:52:49;;;;;;;2.17;1.73;;;;;;;;;;5083259;28;20187;-57
2023/01/11 05:55:15;;;;;;;2.60;2.20;;;;;;;;;;5063571;28;20219;-56
2023/01/11 05:57:42;;;;;;;3.60;2.30;;;;;;;;;;5079464;28;20214;-56
2023/01/11 06:00:08;;;;;;;2.87;2.10;;;;;;;;;;5082874;28;20179;-57
2023/01/11 06:02:34;;;;;;;2.27;1.70;;;;;;;;;;5064590;28;20207;-56
2023/01/11 06:05:01;;;;;;;2.10;1.90;;;;;;;;;;5081958;28;20179;-57
2023/01/11 06:07:27;;;;;;;3.97;2.03;;;;;;;;;;5077904;28;20609;-56
2023/01/11 06:09:53;;;;;;;2.33;1.93;;;;;;;;;;5082667;28;20733;-57
2023/01/11 06:12:19;;;;;;;1.93;1.80;;;;;;;;;;5083469;28;20210;-56
2023/01/11 06:14:45;;;;;;;3.23;2.17;;;;;;;;;;5085364;28;20180;-56
2023/01/11 06:17:11;;;;;;;1.70;1.60;;;;;;;;;;5077897;28;20629;-56
2023/01/11 06:19:37;;;;;;;2.47;2.23;;;;;;;;;;5083938;28;20180;-56
2023/01/11 06:22:03;;;;;;;2.10;1.90;;;;;;;;;;5080593;28;20328;-56
2023/01/11 06:24:29;;;;;;;2.07;1.83;;;;;;;;;;5082644;28;20179;-56
2023/01/11 06:26:55;;;;;;;1.73;1.63;;;;;;;;;;5088452;28;20198;-56
2023/01/11 06:29:21;;;;;;;1.80;1.60;;;;;;;;;;5082083;28;20298;-56
2023/01/11 06:31:47;;;;;;;1.80;1.70;;;;;;;;;;5088460;27;20226;-56
2023/01/11 06:34:13;;;;;;;1.80;1.67;;;;;;;;;;5058725;28;20184;-55
2023/01/11 06:36:39;;;;;;;2.10;1.90;;;;;;;;;;5082538;28;20309;-56
2023/01/11 06:39:06;;;;;;;2.70;1.63;;;;;;;;;;5081185;28;20238;-56
2023/01/11 06:41:32;;;;;;;2.70;1.87;;;;;;;;;;5067510;28;20180;-56
2023/01/11 06:43:58;;;;;;;1.70;1.43;;;;;;;;;;5081816;28;20180;-56
2023/01/11 06:46:24;;;;;;;2.53;1.70;;;;;;;;;;5085941;28;20288;-56
2023/01/11 06:48:50;;;;;;;1.87;1.63;;;;;;;;;;5083924;28;20522;-56
2023/01/11 06:51:16;;;;;;;1.90;1.70;;;;;;;;;;5076285;28;20607;-56
2023/01/11 06:53:43;;;;;;;1.93;1.80;;;;;;;;;;5071112;28;20181;-56
2023/01/11 06:56:13;;;;;;;1.90;1.77;;;;;;;;;;5075035;28;20212;-55
2023/01/11 06:58:39;;;;;;;1.93;1.70;;;;;;;;;;5081803;28;20190;-55
2023/01/11 07:01:05;;;;;;;1.60;1.50;;;;;;;;;;5074850;28;20553;-55
2023/01/11 07:03:31;;;;;;;2.07;1.87;;;;;;;;;;5077820;28;20184;-55
2023/01/11 07:05:58;;;;;;;2.60;1.60;;;;;;;;;;5075317;28;20196;-56
2023/01/11 07:08:27;;;;;;;2.33;2.03;;;;;;;;;;5077902;28;20652;-55
2023/01/11 07:10:54;;;;;;;1.47;1.37;;;;;;;;;;5058008;28;20173;-55
2023/01/11 07:13:20;;;;;;;1.57;1.47;;;;;;;;;;5079584;28;20440;-55
2023/01/11 07:15:49;;;;;;;1.53;1.40;;;;;;;;;;5078070;28;20562;-55
2023/01/11 07:18:15;;;;;;;1.77;1.10;;;;;;;;;;5073719;28;20633;-55
2023/01/11 07:20:41;;;;;;;2.10;1.90;;;;;;;;;;5082519;28;20194;-55
2023/01/11 07:23:07;;;;;;;1.67;1.20;;;;;;;;;;5080429;28;20175;-55
2023/01/11 07:25:33;;;;;;;2.20;1.40;;;;;;;;;;5073565;28;20176;-55
2023/01/11 07:28:01;;;;;;;1.60;1.40;;;;;;;;;;5076491;28;20253;-56
2023/01/11 07:30:28;;;;;;;1.47;1.37;;;;;;;;;;5083374;28;20250;-56
2023/01/11 07:32:54;;;;;;;2.00;1.67;;;;;;;;;;5075267;28;20204;-56
2023/01/11 07:35:20;;;;;;;2.23;1.53;;;;;;;;;;5076044;28;20195;-55
2023/01/11 07:37:46;;;;;;;1.83;1.40;;;;;;;;;;5080850;28;20176;-56
2023/01/11 07:40:15;;;;;;;1.40;1.30;;;;;;;;;;5082327;28;20191;-56
2023/01/11 07:45:30;;;;;;;1.53;1.30;;;;;;;;;;5071756;28;20685;-55
2023/01/11 07:47:56;;;;;;;1.40;1.30;;;;;;;;;;5072501;28;20200;-55
2023/01/11 07:50:22;;;;;;;1.70;1.60;;;;;;;;;;5082102;28;20215;-56
2023/01/11 07:52:48;;;;;;;1.40;1.30;;;;;;;;;;5074636;28;21324;-55
2023/01/11 07:55:14;;;;;;;2.20;2.00;;;;;;;;;;5071563;28;20712;-55
2023/01/11 07:57:40;;;;;;;1.40;1.30;;;;;;;;;;5077246;28;20180;-55
2023/01/11 08:00:07;;;;;;;1.53;1.43;;;;;;;;;;5080137;28;20279;-55
2023/01/11 08:02:33;;;;;;;1.30;1.20;;;;;;;;;;5074186;28;20191;-56
2023/01/11 08:04:59;;;;;;;1.73;1.50;;;;;;;;;;5079861;28;20180;-55
2023/01/11 08:07:25;;;;;;;1.53;1.43;;;;;;;;;;5082801;28;20661;-55
2023/01/11 08:09:51;;;;;;;1.83;1.73;;;;;;;;;;5081867;28;20172;-55
2023/01/11 08:15:02;;;;;;;1.93;1.63;;;;;;;;;;5082280;28;20341;-56
2023/01/11 08:17:28;;;;;;;1.80;1.70;;;;;;;;;;5082022;28;20206;-55
2023/01/11 08:19:54;;;;;;;1.40;1.30;;;;;;;;;;5080873;28;20725;-56
2023/01/11 08:22:21;;;;;;;1.50;1.40;;;;;;;;;;5082474;28;20180;-56
2023/01/11 08:24:47;;;;;;;2.23;2.03;;;;;;;;;;5060582;28;20658;-56
2023/01/11 08:27:13;;;;;;;2.40;1.83;;;;;;;;;;5083309;28;20196;-56
2023/01/11 08:29:42;;;;;;;2.30;2.10;;;;;;;;;;5079170;28;20172;-56
2023/01/11 08:32:08;;;;;;;3.43;2.20;;;;;;;;;;5082424;28;20716;-56
2023/01/11 08:34:35;;;;;;;2.87;2.67;;;;;;;;;;5079645;28;20577;-56
2023/01/11 08:37:01;;;;;;;2.60;2.40;;;;;;;;;;5082576;28;20476;-56
2023/01/11 08:39:29;;;;;;;4.90;2.37;;;;;;;;;;5078450;28;20209;-55
2023/01/11 08:42:02;;;;;;;3.10;2.67;;;;;;;;;;5078206;28;20583;-55
2023/01/11 08:44:28;;;;;;;2.53;2.33;;;;;;;;;;5071614;28;20180;-56
2023/01/11 08:46:54;;;;;;;2.90;2.13;;;;;;;;;;5078985;28;20207;-56
2023/01/11 08:49:23;;;;;;;3.07;2.00;;;;;;;;;;5072519;28;20172;-55
2023/01/11 08:51:49;;;;;;;5.13;2.73;;;;;;;;;;5061028;28;20180;-55
2023/01/11 08:54:16;;;;;;;4.40;2.33;;;;;;;;;;5061867;28;20204;-55
2023/01/11 08:56:42;;;;;;;4.33;2.20;;;;;;;;;;5075511;28;20610;-56
2023/01/11 08:59:10;;;;;;;6.47;2.73;;;;;;;;;;5082770;28;20183;-55
2023/01/11 09:01:36;;;;;;;8.03;3.13;;;;;;;;;;5087623;28;20179;-56
2023/01/11 09:04:02;;;;;;;10.43;2.73;;;;;;;;;;5089161;28;20641;-56
2023/01/11 09:06:28;;;;;;;8.10;3.57;;;;;;;;;;5089531;28;20192;-55
2023/01/11 09:08:54;;;;;;;6.83;2.30;;;;;;;;;;5088121;28;20156;-56
2023/01/11 09:14:06;;;;;;;5.97;2.33;;;;;;;;;;5088209;28;20190;-55
2023/01/11 09:16:32;;;;;;;6.13;2.77;;;;;;;;;;5088921;28;20223;-56
2023/01/11 09:18:58;;;;;;;9.43;3.27;;;;;;;;;;5083471;28;20718;-55
2023/01/11 09:21:24;;;;;;;5.53;3.00;;;;;;;;;;5079886;28;20183;-55
2023/01/11 09:23:52;;;;;;;6.57;3.20;;;;;;;;;;5087397;28;20629;-54
2023/01/11 09:26:19;;;;;;;8.30;2.63;;;;;;;;;;5084273;28;20203;-55
2023/01/11 09:28:45;;;;;;;10.13;3.37;;;;;;;;;;5066252;28;20230;-54
2023/01/11 09:31:11;;;;;;;9.03;2.83;;;;;;;;;;5068667;28;20686;-54
2023/01/11 09:33:38;;;;;;;9.13;3.23;;;;;;;;;;5068011;28;20266;-53
2023/01/11 09:36:04;;;;;;;6.80;3.47;;;;;;;;;;5067976;28;20233;-53
2023/01/11 09:38:32;;;;;;;7.50;3.57;;;;;;;;;;5065730;28;20231;-54
2023/01/11 09:41:07;;;;;;;6.23;3.13;;;;;;;;;;5066465;28;20263;-54
2023/01/11 09:43:45;;;;;;;6.33;3.20;;;;;;;;;;5048639;28;20576;-53
2023/01/11 09:46:13;;;;;;;6.73;3.07;;;;;;;;;;5030183;28;20726;-55
2023/01/11 09:48:53;;;;;;;3.77;2.80;;;;;;;;;;5054385;28;20251;-54
2023/01/11 09:51:19;;;;;;;4.47;3.07;;;;;;;;;;5057069;28;20169;-54
2023/01/11 09:53:51;;;;;;;6.83;3.13;;;;;;;;;;5064504;28;20649;-56
2023/01/11 09:56:23;;;;;;;7.23;3.20;;;;;;;;;;5063700;28;20176;-55
2023/01/11 09:58:58;;;;;;;5.30;2.83;;;;;;;;;;5067518;28;20643;-55
2023/01/11 10:01:35;;;;;;;6.80;3.83;;;;;;;;;;5067315;28;20172;-54
2023/01/11 10:04:24;;;;;;;4.93;2.77;;;;;;;;;;5067277;28;20164;-56
2023/01/11 10:07:14;;;;;;;6.57;2.77;;;;;;;;;;5066476;28;20287;-57
2023/01/11 10:09:58;;;;;;;6.47;3.13;;;;;;;;;;5060858;28;20169;-54
2023/01/11 10:12:36;;;;;;;7.67;2.97;;;;;;;;;;5064984;28;20692;-54
2023/01/11 10:15:11;;;;;;;13.33;3.40;;;;;;;;;;5067052;28;20164;-55
2023/01/11 10:17:41;;;;;;;12.30;3.43;;;;;;;;;;5065265;28;20253;-55
2023/01/11 10:20:13;;;;;;;5.90;3.07;;;;;;;;;;5065019;28;20542;-56
2023/01/11 10:22:42;;;;;;;9.43;3.93;;;;;;;;;;5053484;28;20191;-54
2023/01/11 10:25:15;;;;;;;8.37;2.97;;;;;;;;;;5063594;28;20622;-55
2023/01/11 10:27:52;;;;;;;11.23;4.07;;;;;;;;;;5062179;28;20207;-54
2023/01/11 10:30:34;;;;;;;10.93;4.27;;;;;;;;;;5064814;28;20648;-55
2023/01/11 10:39:45;;;;;;;8.07;3.30;;;;;;;;;;5066008;28;20180;-55
2023/01/11 10:42:00;;;;;;;9.60;3.80;;;;;;;;;;5052712;28;20192;-54
2023/01/11 10:44:59;;;;;;;12.77;3.30;;;;;;;;;;5066581;28;20389;-54
2023/01/11 10:47:27;;;;;;;6.90;3.33;;;;;;;;;;5011746;28;20452;-54
2023/01/11 10:50:04;;;;;;;5.40;2.90;;;;;;;;;;5065265;28;20547;-54
2023/01/11 10:52:58;;;;;;;13.43;3.73;;;;;;;;;;5056767;28;20561;-55
2023/01/11 10:55:28;;;;;;;8.20;2.90;;;;;;;;;;5028176;28;20648;-56
2023/01/11 10:57:54;;;;;;;5.50;2.67;;;;;;;;;;5065931;28;20181;-54
2023/01/11 11:00:35;;;;;;;9.10;2.93;;;;;;;;;;5065687;28;20181;-54
2023/01/11 11:03:10;;;;;;;10.10;3.17;;;;;;;;;;5044352;28;20211;-56
2023/01/11 11:05:55;;;;;;;5.90;2.47;;;;;;;;;;5047408;28;20212;-54
2023/01/11 11:08:30;;;;;;;10.63;2.90;;;;;;;;;;5065558;28;20619;-55
2023/01/11 11:11:00;;;;;;;11.13;3.33;;;;;;;;;;5063885;28;20578;-57
2023/01/11 11:13:42;;;;;;;7.53;2.67;;;;;;;;;;5065316;28;20616;-54
2023/01/11 11:16:23;;;;;;;10.47;3.17;;;;;;;;;;5066341;28;20687;-55
2023/01/11 11:18:50;;;;;;;11.17;4.20;;;;;;;;;;5065891;28;20180;-54
2023/01/11 11:21:21;;;;;;;9.23;3.50;;;;;;;;;;5064467;28;20164;-54
2023/01/11 11:23:50;;;;;;;9.07;3.43;;;;;;;;;;5055452;28;20197;-55
2023/01/11 11:26:16;;;;;;;9.00;3.50;;;;;;;;;;5056327;28;20188;-54
2023/01/11 11:28:58;;;;;;;10.67;3.90;;;;;;;;;;5064338;28;20452;-54
2023/01/11 11:31:24;;;;;;;7.13;3.43;;;;;;;;;;5073069;28;20515;-56
2023/01/11 11:33:50;;;;;;;9.70;3.97;;;;;;;;;;5083905;28;20194;-55
2023/01/11 11:36:16;;;;;;;8.00;4.40;;;;;;;;;;5085525;28;20194;-55
2023/01/11 11:39:01;;;;;;;5.10;3.77;;;;;;;;;;5084805;28;20573;-54
2023/01/11 11:41:27;;;;;;;9.07;3.73;;;;;;;;;;5052378;28;20205;-54
2023/01/11 11:44:07;;;;;;;8.37;4.30;;;;;;;;;;5070019;28;20191;-55
2023/01/11 11:46:33;;;;;;;9.20;4.63;;;;;;;;;;5074353;28;20528;-54
2023/01/11 11:49:15;;;;;;;15.17;4.53;;;;;;;;;;5071629;28;20176;-55
2023/01/11 11:51:42;;;;;;;10.33;5.20;;;;;;;;;;5068279;28;20232;-55
2023/01/11 11:54:17;;;;;;;8.57;4.23;;;;;;;;;;5070584;28;20172;-54
2023/01/11 11:56:43;;;;;;;11.70;4.33;;;;;;;;;;5060403;28;20179;-55
2023/01/11 11:59:13;;;;;;;9.50;4.97;;;;;;;;;;5078391;28;20693;-55
2023/01/11 12:01:45;;;;;;;7.80;4.47;;;;;;;;;;5074972;28;20187;-54
2023/01/11 12:04:14;;;;;;;10.93;4.37;;;;;;;;;;5083396;28;20573;-55
2023/01/11 12:06:40;;;;;;;10.13;4.80;;;;;;;;;;5083980;28;20286;-55
2023/01/11 12:09:11;;;;;;;12.87;4.70;;;;;;;;;;5081535;28;22165;-55
2023/01/11 12:11:41;;;;;;;8.47;4.63;;;;;;;;;;5073056;28;20234;-57
2023/01/11 12:14:10;;;;;;;10.23;4.60;;;;;;;;;;5066786;28;20643;-56
2023/01/11 12:16:40;;;;;;;9.30;5.00;;;;;;;;;;5081771;28;20206;-54
2023/01/11 12:19:25;;;;;;;9.43;5.13;;;;;;;;;;5059211;28;20219;-54
2023/01/11 12:21:51;;;;;;;10.13;4.77;;;;;;;;;;5064551;28;20185;-55
2023/01/11 12:24:18;;;;;;;12.33;5.50;;;;;;;;;;5081537;28;20686;-55
2023/01/11 12:26:56;;;;;;;8.67;4.07;;;;;;;;;;5078219;28;20763;-56
2023/01/11 12:29:25;;;;;;;12.53;4.10;;;;;;;;;;5074518;28;20252;-55
2023/01/11 12:32:03;;;;;;;7.53;4.63;;;;;;;;;;5079121;28;20223;-56
2023/01/11 12:34:35;;;;;;;10.97;4.13;;;;;;;;;;5049979;28;20574;-54
2023/01/11 12:37:19;;;;;;;9.77;3.67;;;;;;;;;;5076284;28;20176;-55
2023/01/11 12:39:48;;;;;;;7.70;3.90;;;;;;;;;;5082423;28;20180;-55
2023/01/11 12:42:33;;;;;;;10.47;4.27;;;;;;;;;;5081420;28;20184;-55
2023/01/11 12:45:13;;;;;;;12.37;4.03;;;;;;;;;;5084447;28;20187;-55
2023/01/11 12:47:49;;;;;;;7.87;3.83;;;;;;;;;;5081473;28;20219;-53
2023/01/11 12:50:19;;;;;;;7.77;3.90;;;;;;;;;;5080615;28;20171;-53
2023/01/11 12:52:51;;;;;;;8.73;4.23;;;;;;;;;;5084328;28;20196;-55
2023/01/11 12:55:23;;;;;;;9.13;4.07;;;;;;;;;;5081887;28;20220;-56
2023/01/11 12:58:00;;;;;;;7.53;3.03;;;;;;;;;;5082476;28;20258;-54
2023/01/11 13:00:55;;;;;;;9.57;3.73;;;;;;;;;;5084583;28;20225;-54
2023/01/11 13:03:26;;;;;;;8.60;4.00;;;;;;;;;;5063807;28;20275;-55
2023/01/11 13:06:11;;;;;;;6.10;3.00;;;;;;;;;;5083714;28;20879;-55
2023/01/11 13:08:43;;;;;;;7.77;3.43;;;;;;;;;;5072320;28;20187;-54
2023/01/11 13:11:33;;;;;;;9.97;3.70;;;;;;;;;;5074958;28;20266;-56
2023/01/11 13:14:12;;;;;;;7.17;3.40;;;;;;;;;;5078111;28;20167;-57
2023/01/11 13:16:43;;;;;;;12.60;3.63;;;;;;;;;;5076502;28;20211;-56
2023/01/11 13:19:13;;;;;;;7.23;3.60;;;;;;;;;;5082228;28;20179;-56
2023/01/11 13:21:43;;;;;;;10.63;3.97;;;;;;;;;;5083250;28;20270;-54
2023/01/11 13:24:14;;;;;;;6.53;3.90;;;;;;;;;;5092641;28;20652;-55
2023/01/11 13:26:47;;;;;;;11.63;3.80;;;;;;;;;;5083150;28;20246;-55
2023/01/11 13:29:15;;;;;;;8.60;3.17;;;;;;;;;;5085157;28;20528;-56
2023/01/11 13:31:42;;;;;;;8.77;3.40;;;;;;;;;;5079772;27;20224;-54
2023/01/11 13:34:17;;;;;;;7.07;3.47;;;;;;;;;;5079770;28;20626;-53
2023/01/11 13:36:45;;;;;;;6.17;2.87;;;;;;;;;;5080037;28;20215;-55
2023/01/11 13:39:11;;;;;;;8.00;4.07;;;;;;;;;;5079097;28;20624;-55
2023/01/11 13:41:46;;;;;;;6.67;3.17;;;;;;;;;;5063511;28;20209;-54
2023/01/11 13:44:21;;;;;;;7.93;3.27;;;;;;;;;;5084876;28;20314;-54
2023/01/11 13:46:57;;;;;;;8.23;3.47;;;;;;;;;;5076143;28;20197;-55
2023/01/11 13:49:42;;;;;;;7.10;3.33;;;;;;;;;;5080829;28;20179;-56
2023/01/11 13:52:16;;;;;;;8.80;3.43;;;;;;;;;;5081081;28;20587;-56
2023/01/11 13:55:03;;;;;;;7.50;3.20;;;;;;;;;;5079372;28;20184;-53
2023/01/11 13:57:35;;;;;;;8.80;3.20;;;;;;;;;;5081876;28;20202;-55
2023/01/11 14:00:06;;;;;;;7.90;3.70;;;;;;;;;;5075891;28;20178;-55
2023/01/11 14:02:41;;;;;;;10.07;3.07;;;;;;;;;;5078425;28;20215;-55
2023/01/11 14:05:10;;;;;;;8.23;3.53;;;;;;;;;;5080547;28;20206;-54
2023/01/11 14:08:04;;;;;;;4.83;2.67;;;;;;;;;;5076053;28;20218;-54
2023/01/11 14:10:36;;;;;;;7.70;3.60;;;;;;;;;;5080279;28;21090;-54
2023/01/11 14:14:12;;;;;;;7.43;2.97;;;;;;;;;;5081218;28;20199;-54
2023/01/11 14:16:12;;;;;;;6.73;3.10;;;;;;;;;;5079440;28;20179;-54
2023/01/11 14:18:50;;;;;;;6.27;2.93;;;;;;;;;;5077675;28;20179;-55
2023/01/11 14:21:29;;;;;;;7.10;3.00;;;;;;;;;;5082020;28;20283;-54
2023/01/11 14:23:56;;;;;;;5.30;3.20;;;;;;;;;;5077536;28;20262;-54
2023/01/11 14:26:25;;;;;;;7.13;3.10;;;;;;;;;;5080335;28;20192;-54
2023/01/11 14:29:03;;;;;;;5.97;3.17;;;;;;;;;;5079469;28;20198;-54
2023/01/11 14:31:29;;;;;;;10.03;4.10;;;;;;;;;;5075111;28;20235;-54
2023/01/11 14:34:04;;;;;;;11.93;3.90;;;;;;;;;;5080149;28;20177;-53
2023/01/11 14:36:45;;;;;;;12.47;4.60;;;;;;;;;;5073607;28;20238;-54
2023/01/11 14:39:20;;;;;;;7.47;3.57;;;;;;;;;;5083501;28;20185;-56
2023/01/11 14:42:02;;;;;;;7.47;2.97;;;;;;;;;;5080959;28;20787;-54
2023/01/11 14:44:33;;;;;;;7.13;2.97;;;;;;;;;;5078769;28;20233;-54
2023/01/11 14:47:05;;;;;;;8.30;3.10;;;;;;;;;;5076406;28;20630;-56
2023/01/11 14:49:50;;;;;;;6.67;3.20;;;;;;;;;;5079192;28;20233;-54
2023/01/11 14:52:26;;;;;;;10.60;3.77;;;;;;;;;;5081008;28;20175;-55
2023/01/11 14:54:53;;;;;;;10.23;3.07;;;;;;;;;;5080601;28;20164;-54
2023/01/11 14:57:37;;;;;;;11.53;3.57;;;;;;;;;;5060047;28;20210;-54
2023/01/11 15:00:23;;;;;;;8.30;4.33;;;;;;;;;;5071615;28;20187;-54
2023/01/11 15:03:01;;;;;;;11.37;3.57;;;;;;;;;;5034308;28;20542;-54
2023/01/11 15:05:30;;;;;;;7.37;3.17;;;;;;;;;;5080315;28;20526;-54
2023/01/11 15:08:14;;;;;;;6.30;2.50;;;;;;;;;;5051271;28;20206;-53
2023/01/11 15:10:49;;;;;;;9.03;3.90;;;;;;;;;;5075063;28;20510;-54
2023/01/11 15:13:27;;;;;;;9.70;3.47;;;;;;;;;;5076884;28;21993;-54
2023/01/11 15:19:24;;;;;;;6.73;2.60;;;;;;;;;;5003684;28;20281;-54
2023/01/11 15:21:52;;;;;;;8.40;2.67;;;;;;;;;;5010019;28;20695;-55
2023/01/11 15:24:21;;;;;;;6.70;2.93;;;;;;;;;;5038731;28;20212;-53
2023/01/11 15:26:48;;;;;;;9.93;3.27;;;;;;;;;;5078199;28;20675;-53
2023/01/11 15:29:23;;;;;;;7.60;3.57;;;;;;;;;;5070314;28;20191;-54
2023/01/11 15:31:59;;;;;;;6.67;3.00;;;;;;;;;;5071941;28;20689;-54